sensor_id;sensor_type;location;lat;lon;timestamp;temperature;humidity
1417;DHT22;703;51.162;13.574;2023-08-17T00:01:48;22.90;99.90
1417;DHT22;703;51.162;13.574;2023-08-17T00:04:14;21.20;99.90
1417;DHT22;703;51.162;13.574;2023-08-17T00:06:39;21.10;99.90
1417;DHT22;703;51.162;13.574;2023-08-17T00:09:05;21.00;99.90
1417;DHT22;703;51.162;13.574;2023-08-17T00:11:32;20.90;99.90
1417;DHT22;703;51.162;13.574;2023-08-17T00:13:58;23.50;99.90
1417;DHT22;703;51.162;13.574;2023-08-17T00:16:23;20.80;99.90
1417;DHT22;703;51.162;13.574;2023-08-17T00:18:49;20.70;99.90
1417;DHT22;703;51.162;13.574;2023-08-17T00:21:14;20.60;99.90
1417;DHT22;703;51.162;13.574;2023-08-17T00:23:40;20.50;99.90
1417;DHT22;703;51.162;13.574;2023-08-17T00:26:05;20.60;99.90
1417;DHT22;703;51.162;13.574;2023-08-17T00:28:31;20.70;99.90
1417;DHT22;703;51.162;13.574;2023-08-17T00:30:57;24.40;99.90
1417;DHT22;703;51.162;13.574;2023-08-17T00:33:22;21.60;99.90
1417;DHT22;703;51.162;13.574;2023-08-17T00:35:47;20.80;99.90
1417;DHT22;703;51.162;13.574;2023-08-17T00:38:13;20.80;99.90
1417;DHT22;703;51.162;13.574;2023-08-17T00:40:39;20.80;99.90
1417;DHT22;703;51.162;13.574;2023-08-17T00:43:04;20.70;99.90
1417;DHT22;703;51.162;13.574;2023-08-17T00:45:30;20.70;99.90
1417;DHT22;703;51.162;13.574;2023-08-17T00:47:56;20.70;99.90
1417;DHT22;703;51.162;13.574;2023-08-17T00:50:22;20.70;99.90
1417;DHT22;703;51.162;13.574;2023-08-17T00:52:47;20.70;99.90
1417;DHT22;703;51.162;13.574;2023-08-17T00:55:13;21.20;99.90
1417;DHT22;703;51.162;13.574;2023-08-17T00:57:39;20.80;99.90
1417;DHT22;703;51.162;13.574;2023-08-17T01:00:05;20.60;99.90
1417;DHT22;703;51.162;13.574;2023-08-17T01:02:31;20.70;99.90
1417;DHT22;703;51.162;13.574;2023-08-17T01:04:56;20.90;99.90
1417;DHT22;703;51.162;13.574;2023-08-17T01:07:22;21.80;99.90
1417;DHT22;703;51.162;13.574;2023-08-17T01:09:47;20.60;99.90
1417;DHT22;703;51.162;13.574;2023-08-17T01:17:15;20.70;99.90
1417;DHT22;703;51.162;13.574;2023-08-17T01:19:42;20.60;99.90
1417;DHT22;703;51.162;13.574;2023-08-17T01:22:10;20.60;99.90
1417;DHT22;703;51.162;13.574;2023-08-17T01:24:36;22.00;99.90
1417;DHT22;703;51.162;13.574;2023-08-17T01:27:02;20.80;99.90
1417;DHT22;703;51.162;13.574;2023-08-17T01:29:27;20.50;99.90
1417;DHT22;703;51.162;13.574;2023-08-17T01:31:54;20.50;99.90
1417;DHT22;703;51.162;13.574;2023-08-17T01:34:24;20.80;99.90
1417;DHT22;703;51.162;13.574;2023-08-17T01:36:52;21.60;99.90
1417;DHT22;703;51.162;13.574;2023-08-17T01:39:18;20.50;99.90
1417;DHT22;703;51.162;13.574;2023-08-17T01:41:45;20.50;99.90
1417;DHT22;703;51.162;13.574;2023-08-17T01:44:11;20.70;99.90
1417;DHT22;703;51.162;13.574;2023-08-17T01:46:37;20.50;99.90
1417;DHT22;703;51.162;13.574;2023-08-17T01:49:03;20.50;99.90
1417;DHT22;703;51.162;13.574;2023-08-17T01:51:28;20.50;99.90
1417;DHT22;703;51.162;13.574;2023-08-17T01:53:54;20.80;99.90
1417;DHT22;703;51.162;13.574;2023-08-17T01:56:19;20.40;99.90
1417;DHT22;703;51.162;13.574;2023-08-17T01:58:45;20.40;99.90
1417;DHT22;703;51.162;13.574;2023-08-17T02:01:10;20.40;99.90
1417;DHT22;703;51.162;13.574;2023-08-17T02:03:35;23.40;99.90
1417;DHT22;703;51.162;13.574;2023-08-17T02:06:01;20.30;99.90
1417;DHT22;703;51.162;13.574;2023-08-17T02:08:27;20.20;99.90
1417;DHT22;703;51.162;13.574;2023-08-17T02:10:52;20.20;99.90
1417;DHT22;703;51.162;13.574;2023-08-17T02:13:18;20.20;99.90
1417;DHT22;703;51.162;13.574;2023-08-17T02:15:44;20.20;99.90
1417;DHT22;703;51.162;13.574;2023-08-17T02:18:09;20.20;99.90
1417;DHT22;703;51.162;13.574;2023-08-17T02:20:35;20.20;99.90
1417;DHT22;703;51.162;13.574;2023-08-17T02:23:00;20.20;99.90
1417;DHT22;703;51.162;13.574;2023-08-17T02:25:26;20.10;99.90
1417;DHT22;703;51.162;13.574;2023-08-17T02:27:52;20.10;99.90
1417;DHT22;703;51.162;13.574;2023-08-17T02:30:17;20.10;99.90
1417;DHT22;703;51.162;13.574;2023-08-17T02:32:43;20.10;99.90
1417;DHT22;703;51.162;13.574;2023-08-17T02:35:08;20.00;99.90
1417;DHT22;703;51.162;13.574;2023-08-17T02:37:33;22.00;99.90
1417;DHT22;703;51.162;13.574;2023-08-17T02:39:59;20.00;99.90
1417;DHT22;703;51.162;13.574;2023-08-17T02:42:25;19.90;99.90
1417;DHT22;703;51.162;13.574;2023-08-17T02:44:50;19.90;99.90
1417;DHT22;703;51.162;13.574;2023-08-17T02:47:15;20.60;99.90
1417;DHT22;703;51.162;13.574;2023-08-17T02:49:41;19.60;99.90
1417;DHT22;703;51.162;13.574;2023-08-17T02:52:06;19.60;99.90
1417;DHT22;703;51.162;13.574;2023-08-17T02:54:32;19.60;99.90
1417;DHT22;703;51.162;13.574;2023-08-17T02:56:57;21.20;99.90
1417;DHT22;703;51.162;13.574;2023-08-17T02:59:23;19.60;99.90
1417;DHT22;703;51.162;13.574;2023-08-17T03:01:48;20.90;99.90
1417;DHT22;703;51.162;13.574;2023-08-17T03:04:14;21.50;99.90
1417;DHT22;703;51.162;13.574;2023-08-17T03:06:39;19.50;99.90
1417;DHT22;703;51.162;13.574;2023-08-17T03:09:05;19.50;99.90
1417;DHT22;703;51.162;13.574;2023-08-17T03:11:30;19.60;99.90
1417;DHT22;703;51.162;13.574;2023-08-17T03:13:56;22.10;99.90
1417;DHT22;703;51.162;13.574;2023-08-17T03:16:25;21.00;99.90
1417;DHT22;703;51.162;13.574;2023-08-17T03:18:51;19.50;99.90
1417;DHT22;703;51.162;13.574;2023-08-17T03:21:16;19.50;99.90
1417;DHT22;703;51.162;13.574;2023-08-17T03:23:43;20.90;99.90
1417;DHT22;703;51.162;13.574;2023-08-17T03:26:09;19.50;99.90
1417;DHT22;703;51.162;13.574;2023-08-17T03:28:34;19.40;99.90
1417;DHT22;703;51.162;13.574;2023-08-17T03:31:01;20.40;99.90
1417;DHT22;703;51.162;13.574;2023-08-17T03:33:27;19.40;99.90
1417;DHT22;703;51.162;13.574;2023-08-17T03:35:52;19.30;99.90
1417;DHT22;703;51.162;13.574;2023-08-17T03:38:18;19.50;99.90
1417;DHT22;703;51.162;13.574;2023-08-17T03:40:43;19.20;99.90
1417;DHT22;703;51.162;13.574;2023-08-17T03:43:09;19.20;99.90
1417;DHT22;703;51.162;13.574;2023-08-17T03:45:34;21.30;99.90
1417;DHT22;703;51.162;13.574;2023-08-17T03:47:59;19.50;99.90
1417;DHT22;703;51.162;13.574;2023-08-17T03:50:28;19.30;99.90
1417;DHT22;703;51.162;13.574;2023-08-17T03:52:54;19.30;99.90
1417;DHT22;703;51.162;13.574;2023-08-17T03:55:19;19.20;99.90
1417;DHT22;703;51.162;13.574;2023-08-17T03:57:44;20.20;99.90
1417;DHT22;703;51.162;13.574;2023-08-17T04:00:10;19.40;99.90
1417;DHT22;703;51.162;13.574;2023-08-17T04:02:36;19.40;99.90
1417;DHT22;703;51.162;13.574;2023-08-17T04:05:02;20.80;99.90
1417;DHT22;703;51.162;13.574;2023-08-17T04:07:27;19.40;99.90
1417;DHT22;703;51.162;13.574;2023-08-17T04:09:53;19.30;99.90
1417;DHT22;703;51.162;13.574;2023-08-17T04:12:18;19.30;99.90
1417;DHT22;703;51.162;13.574;2023-08-17T04:14:44;19.30;99.90
1417;DHT22;703;51.162;13.574;2023-08-17T04:17:09;19.30;99.90
1417;DHT22;703;51.162;13.574;2023-08-17T04:19:35;19.10;99.90
1417;DHT22;703;51.162;13.574;2023-08-17T04:22:00;19.10;99.90
1417;DHT22;703;51.162;13.574;2023-08-17T04:24:26;19.10;99.90
1417;DHT22;703;51.162;13.574;2023-08-17T04:26:51;19.10;99.90
1417;DHT22;703;51.162;13.574;2023-08-17T04:29:16;19.20;99.90
1417;DHT22;703;51.162;13.574;2023-08-17T04:31:42;20.10;99.90
1417;DHT22;703;51.162;13.574;2023-08-17T04:34:07;19.80;99.90
1417;DHT22;703;51.162;13.574;2023-08-17T04:36:33;20.70;99.90
1417;DHT22;703;51.162;13.574;2023-08-17T04:38:58;19.40;99.90
1417;DHT22;703;51.162;13.574;2023-08-17T04:41:24;21.40;99.90
1417;DHT22;703;51.162;13.574;2023-08-17T04:43:49;19.90;99.90
1417;DHT22;703;51.162;13.574;2023-08-17T04:46:15;23.10;99.90
1417;DHT22;703;51.162;13.574;2023-08-17T04:48:40;19.50;99.90
1417;DHT22;703;51.162;13.574;2023-08-17T04:51:06;22.40;99.90
1417;DHT22;703;51.162;13.574;2023-08-17T04:53:32;19.30;99.90
1417;DHT22;703;51.162;13.574;2023-08-17T04:55:58;20.00;99.90
1417;DHT22;703;51.162;13.574;2023-08-17T04:58:23;20.50;99.90
1417;DHT22;703;51.162;13.574;2023-08-17T05:00:49;19.50;99.90
1417;DHT22;703;51.162;13.574;2023-08-17T05:03:14;19.50;99.90
1417;DHT22;703;51.162;13.574;2023-08-17T05:05:40;19.60;99.90
1417;DHT22;703;51.162;13.574;2023-08-17T05:08:05;20.90;99.90
1417;DHT22;703;51.162;13.574;2023-08-17T05:10:31;19.60;99.90
1417;DHT22;703;51.162;13.574;2023-08-17T05:12:56;19.60;99.90
1417;DHT22;703;51.162;13.574;2023-08-17T05:15:21;20.20;99.90
1417;DHT22;703;51.162;13.574;2023-08-17T05:17:47;22.30;99.90
1417;DHT22;703;51.162;13.574;2023-08-17T05:20:12;19.70;99.90
1417;DHT22;703;51.162;13.574;2023-08-17T05:22:38;19.70;99.90
1417;DHT22;703;51.162;13.574;2023-08-17T05:25:04;19.70;99.90
1417;DHT22;703;51.162;13.574;2023-08-17T05:27:29;19.70;99.90
1417;DHT22;703;51.162;13.574;2023-08-17T05:29:55;19.70;99.90
1417;DHT22;703;51.162;13.574;2023-08-17T05:32:20;20.20;99.90
1417;DHT22;703;51.162;13.574;2023-08-17T05:34:46;19.60;99.90
1417;DHT22;703;51.162;13.574;2023-08-17T05:37:12;19.50;99.90
1417;DHT22;703;51.162;13.574;2023-08-17T05:39:37;19.70;99.90
1417;DHT22;703;51.162;13.574;2023-08-17T05:42:03;19.60;99.90
1417;DHT22;703;51.162;13.574;2023-08-17T05:44:29;19.60;99.90
1417;DHT22;703;51.162;13.574;2023-08-17T05:46:55;21.30;99.90
1417;DHT22;703;51.162;13.574;2023-08-17T05:49:20;19.80;99.90
1417;DHT22;703;51.162;13.574;2023-08-17T05:51:46;19.80;99.90
1417;DHT22;703;51.162;13.574;2023-08-17T05:54:11;21.10;99.90
1417;DHT22;703;51.162;13.574;2023-08-17T05:56:37;19.80;99.90
1417;DHT22;703;51.162;13.574;2023-08-17T05:59:03;19.80;99.90
1417;DHT22;703;51.162;13.574;2023-08-17T06:01:28;19.80;99.90
1417;DHT22;703;51.162;13.574;2023-08-17T06:03:54;21.40;99.90
1417;DHT22;703;51.162;13.574;2023-08-17T06:06:19;22.50;99.90
1417;DHT22;703;51.162;13.574;2023-08-17T06:08:45;19.90;99.90
1417;DHT22;703;51.162;13.574;2023-08-17T06:11:10;19.90;99.90
1417;DHT22;703;51.162;13.574;2023-08-17T06:13:36;19.90;99.90
1417;DHT22;703;51.162;13.574;2023-08-17T06:16:02;20.00;99.90
1417;DHT22;703;51.162;13.574;2023-08-17T06:18:29;20.70;99.90
1417;DHT22;703;51.162;13.574;2023-08-17T06:20:54;20.10;99.90
1417;DHT22;703;51.162;13.574;2023-08-17T06:23:20;20.70;99.90
1417;DHT22;703;51.162;13.574;2023-08-17T06:25:46;21.30;99.90
1417;DHT22;703;51.162;13.574;2023-08-17T06:28:11;22.20;99.90
1417;DHT22;703;51.162;13.574;2023-08-17T06:30:36;20.80;99.90
1417;DHT22;703;51.162;13.574;2023-08-17T06:33:02;21.00;99.90
1417;DHT22;703;51.162;13.574;2023-08-17T06:35:27;21.00;99.90
1417;DHT22;703;51.162;13.574;2023-08-17T06:37:53;21.50;99.90
1417;DHT22;703;51.162;13.574;2023-08-17T06:40:21;20.80;99.90
1417;DHT22;703;51.162;13.574;2023-08-17T06:42:47;23.50;99.90
1417;DHT22;703;51.162;13.574;2023-08-17T06:45:12;22.60;99.90
1417;DHT22;703;51.162;13.574;2023-08-17T06:47:43;21.10;99.90
1417;DHT22;703;51.162;13.574;2023-08-17T06:50:10;20.90;99.90
1417;DHT22;703;51.162;13.574;2023-08-17T06:52:36;19.10;99.90
1417;DHT22;703;51.162;13.574;2023-08-17T06:55:01;22.50;99.90
1417;DHT22;703;51.162;13.574;2023-08-17T06:57:27;22.20;99.90
1417;DHT22;703;51.162;13.574;2023-08-17T06:59:54;21.20;99.90
1417;DHT22;703;51.162;13.574;2023-08-17T07:02:19;21.30;99.90
1417;DHT22;703;51.162;13.574;2023-08-17T07:04:45;24.00;99.90
1417;DHT22;703;51.162;13.574;2023-08-17T07:07:10;21.60;99.90
1417;DHT22;703;51.162;13.574;2023-08-17T07:09:36;21.40;99.90
1417;DHT22;703;51.162;13.574;2023-08-17T07:12:01;23.90;99.90
1417;DHT22;703;51.162;13.574;2023-08-17T07:14:27;21.70;99.90
1417;DHT22;703;51.162;13.574;2023-08-17T07:16:53;21.70;99.90
1417;DHT22;703;51.162;13.574;2023-08-17T07:19:18;21.90;99.90
1417;DHT22;703;51.162;13.574;2023-08-17T07:21:44;21.90;99.90
1417;DHT22;703;51.162;13.574;2023-08-17T07:24:12;22.00;99.90
1417;DHT22;703;51.162;13.574;2023-08-17T07:26:38;22.30;99.90
1417;DHT22;703;51.162;13.574;2023-08-17T07:29:04;23.10;99.90
1417;DHT22;703;51.162;13.574;2023-08-17T07:31:29;23.20;99.90
1417;DHT22;703;51.162;13.574;2023-08-17T07:33:55;25.00;99.90
1417;DHT22;703;51.162;13.574;2023-08-17T07:36:21;23.00;99.90
1417;DHT22;703;51.162;13.574;2023-08-17T07:38:46;22.60;99.90
1417;DHT22;703;51.162;13.574;2023-08-17T07:41:12;22.90;99.90
1417;DHT22;703;51.162;13.574;2023-08-17T07:43:37;24.20;99.90
1417;DHT22;703;51.162;13.574;2023-08-17T07:46:03;25.10;99.90
1417;DHT22;703;51.162;13.574;2023-08-17T07:48:28;23.30;99.90
1417;DHT22;703;51.162;13.574;2023-08-17T07:50:58;26.50;99.90
1417;DHT22;703;51.162;13.574;2023-08-17T07:53:24;23.90;99.90
1417;DHT22;703;51.162;13.574;2023-08-17T07:55:49;23.40;99.90
1417;DHT22;703;51.162;13.574;2023-08-17T07:58:15;23.70;99.90
1417;DHT22;703;51.162;13.574;2023-08-17T08:00:40;23.50;99.90
1417;DHT22;703;51.162;13.574;2023-08-17T08:03:06;23.60;99.90
1417;DHT22;703;51.162;13.574;2023-08-17T08:05:31;25.50;99.90
1417;DHT22;703;51.162;13.574;2023-08-17T08:07:57;24.10;99.90
1417;DHT22;703;51.162;13.574;2023-08-17T08:10:22;24.20;99.90
1417;DHT22;703;51.162;13.574;2023-08-17T08:12:48;24.50;99.90
1417;DHT22;703;51.162;13.574;2023-08-17T08:15:13;24.50;99.90
1417;DHT22;703;51.162;13.574;2023-08-17T08:17:38;24.70;99.90
1417;DHT22;703;51.162;13.574;2023-08-17T08:20:04;24.70;99.90
1417;DHT22;703;51.162;13.574;2023-08-17T08:22:30;24.90;99.90
1417;DHT22;703;51.162;13.574;2023-08-17T08:24:55;25.00;99.90
1417;DHT22;703;51.162;13.574;2023-08-17T08:27:21;25.00;99.90
1417;DHT22;703;51.162;13.574;2023-08-17T08:29:46;25.50;99.90
1417;DHT22;703;51.162;13.574;2023-08-17T08:32:12;25.50;99.90
1417;DHT22;703;51.162;13.574;2023-08-17T08:34:37;25.50;99.90
1417;DHT22;703;51.162;13.574;2023-08-17T08:37:03;25.70;99.90
1417;DHT22;703;51.162;13.574;2023-08-17T08:39:28;25.90;99.90
1417;DHT22;703;51.162;13.574;2023-08-17T08:41:54;26.10;99.90
1417;DHT22;703;51.162;13.574;2023-08-17T08:44:20;25.80;99.90
1417;DHT22;703;51.162;13.574;2023-08-17T08:46:45;26.10;99.90
1417;DHT22;703;51.162;13.574;2023-08-17T08:49:11;26.10;99.90
1417;DHT22;703;51.162;13.574;2023-08-17T08:51:48;27.10;99.90
1417;DHT22;703;51.162;13.574;2023-08-17T08:54:14;26.40;99.90
1417;DHT22;703;51.162;13.574;2023-08-17T08:56:43;27.10;99.90
1417;DHT22;703;51.162;13.574;2023-08-17T08:59:09;26.90;99.90
1417;DHT22;703;51.162;13.574;2023-08-17T09:01:35;27.20;99.90
1417;DHT22;703;51.162;13.574;2023-08-17T09:04:01;26.90;99.90
1417;DHT22;703;51.162;13.574;2023-08-17T09:06:31;26.50;99.90
1417;DHT22;703;51.162;13.574;2023-08-17T09:08:58;26.30;99.90
1417;DHT22;703;51.162;13.574;2023-08-17T09:11:24;26.00;99.90
1417;DHT22;703;51.162;13.574;2023-08-17T09:13:49;25.90;99.90
1417;DHT22;703;51.162;13.574;2023-08-17T09:16:15;25.70;99.90
1417;DHT22;703;51.162;13.574;2023-08-17T09:18:40;25.70;99.90
1417;DHT22;703;51.162;13.574;2023-08-17T09:21:07;25.60;99.90
1417;DHT22;703;51.162;13.574;2023-08-17T09:23:32;26.00;99.90
1417;DHT22;703;51.162;13.574;2023-08-17T09:25:57;25.80;99.90
1417;DHT22;703;51.162;13.574;2023-08-17T09:28:30;25.90;99.90
1417;DHT22;703;51.162;13.574;2023-08-17T09:30:56;26.20;99.90
1417;DHT22;703;51.162;13.574;2023-08-17T09:33:23;26.50;99.90
1417;DHT22;703;51.162;13.574;2023-08-17T09:35:49;26.70;99.90
1417;DHT22;703;51.162;13.574;2023-08-17T09:38:15;27.20;99.90
1417;DHT22;703;51.162;13.574;2023-08-17T09:40:40;27.20;99.90
1417;DHT22;703;51.162;13.574;2023-08-17T09:43:06;27.00;99.90
1417;DHT22;703;51.162;13.574;2023-08-17T09:45:31;27.50;99.90
1417;DHT22;703;51.162;13.574;2023-08-17T09:47:58;27.20;99.90
1417;DHT22;703;51.162;13.574;2023-08-17T09:50:24;27.00;99.90
1417;DHT22;703;51.162;13.574;2023-08-17T09:52:54;27.20;99.90
1417;DHT22;703;51.162;13.574;2023-08-17T09:55:22;27.50;99.90
1417;DHT22;703;51.162;13.574;2023-08-17T09:57:49;27.40;99.90
1417;DHT22;703;51.162;13.574;2023-08-17T10:00:15;27.40;99.90
1417;DHT22;703;51.162;13.574;2023-08-17T10:02:41;27.50;99.90
1417;DHT22;703;51.162;13.574;2023-08-17T10:05:07;27.70;99.90
1417;DHT22;703;51.162;13.574;2023-08-17T10:07:35;27.90;99.90
1417;DHT22;703;51.162;13.574;2023-08-17T10:10:04;27.60;99.90
1417;DHT22;703;51.162;13.574;2023-08-17T10:12:31;27.80;99.90
1417;DHT22;703;51.162;13.574;2023-08-17T10:15:07;28.20;99.90
1417;DHT22;703;51.162;13.574;2023-08-17T10:17:43;28.20;99.90
1417;DHT22;703;51.162;13.574;2023-08-17T10:20:09;28.30;99.90
1417;DHT22;703;51.162;13.574;2023-08-17T10:25:01;28.50;99.90
1417;DHT22;703;51.162;13.574;2023-08-17T10:27:27;28.20;99.90
1417;DHT22;703;51.162;13.574;2023-08-17T10:29:53;28.70;99.90
1417;DHT22;703;51.162;13.574;2023-08-17T10:32:21;29.10;99.90
1417;DHT22;703;51.162;13.574;2023-08-17T10:34:48;29.40;99.90
1417;DHT22;703;51.162;13.574;2023-08-17T10:37:14;29.00;99.90
1417;DHT22;703;51.162;13.574;2023-08-17T10:39:44;29.10;99.90
1417;DHT22;703;51.162;13.574;2023-08-17T10:42:10;28.90;99.90
1417;DHT22;703;51.162;13.574;2023-08-17T10:47:26;29.40;99.90
1417;DHT22;703;51.162;13.574;2023-08-17T10:49:55;29.50;99.90
1417;DHT22;703;51.162;13.574;2023-08-17T10:52:28;30.20;99.90
1417;DHT22;703;51.162;13.574;2023-08-17T10:54:53;29.60;99.90
1417;DHT22;703;51.162;13.574;2023-08-17T10:57:30;29.40;99.90
1417;DHT22;703;51.162;13.574;2023-08-17T11:00:06;29.90;99.90
1417;DHT22;703;51.162;13.574;2023-08-17T11:02:33;27.80;99.90
1417;DHT22;703;51.162;13.574;2023-08-17T11:04:59;30.40;99.90
1417;DHT22;703;51.162;13.574;2023-08-17T11:07:25;30.20;99.90
1417;DHT22;703;51.162;13.574;2023-08-17T11:09:53;30.50;99.90
1417;DHT22;703;51.162;13.574;2023-08-17T11:12:25;30.80;99.90
1417;DHT22;703;51.162;13.574;2023-08-17T11:14:51;30.80;99.90
1417;DHT22;703;51.162;13.574;2023-08-17T11:17:16;30.30;99.90
1417;DHT22;703;51.162;13.574;2023-08-17T11:19:42;30.40;99.90
1417;DHT22;703;51.162;13.574;2023-08-17T11:22:07;30.30;99.90
1417;DHT22;703;51.162;13.574;2023-08-17T11:24:33;30.60;99.90
1417;DHT22;703;51.162;13.574;2023-08-17T11:26:58;30.60;99.90
1417;DHT22;703;51.162;13.574;2023-08-17T11:29:24;30.90;99.90
1417;DHT22;703;51.162;13.574;2023-08-17T11:31:50;31.10;99.90
1417;DHT22;703;51.162;13.574;2023-08-17T11:34:15;31.20;99.90
1417;DHT22;703;51.162;13.574;2023-08-17T11:36:41;31.30;99.90
1417;DHT22;703;51.162;13.574;2023-08-17T11:39:06;31.10;99.90
1417;DHT22;703;51.162;13.574;2023-08-17T11:41:34;31.40;99.90
1417;DHT22;703;51.162;13.574;2023-08-17T11:43:59;31.70;99.90
1417;DHT22;703;51.162;13.574;2023-08-17T11:46:25;31.00;99.90
1417;DHT22;703;51.162;13.574;2023-08-17T11:48:51;31.30;99.90
1417;DHT22;703;51.162;13.574;2023-08-17T11:51:27;31.80;99.90
1417;DHT22;703;51.162;13.574;2023-08-17T11:53:54;31.80;99.90
1417;DHT22;703;51.162;13.574;2023-08-17T11:56:19;32.00;99.90
1417;DHT22;703;51.162;13.574;2023-08-17T11:58:46;32.50;99.90
1417;DHT22;703;51.162;13.574;2023-08-17T12:01:12;32.20;99.90
1417;DHT22;703;51.162;13.574;2023-08-17T12:03:38;32.20;99.90
1417;DHT22;703;51.162;13.574;2023-08-17T12:06:04;32.70;99.90
1417;DHT22;703;51.162;13.574;2023-08-17T12:08:30;32.20;99.90
1417;DHT22;703;51.162;13.574;2023-08-17T12:10:55;31.70;99.90
1417;DHT22;703;51.162;13.574;2023-08-17T12:13:28;31.70;99.90
1417;DHT22;703;51.162;13.574;2023-08-17T12:15:54;31.50;99.90
1417;DHT22;703;51.162;13.574;2023-08-17T12:18:20;31.40;99.90
1417;DHT22;703;51.162;13.574;2023-08-17T12:20:51;31.90;99.90
1417;DHT22;703;51.162;13.574;2023-08-17T12:23:17;31.60;99.90
1417;DHT22;703;51.162;13.574;2023-08-17T12:25:42;31.70;99.90
1417;DHT22;703;51.162;13.574;2023-08-17T12:28:07;32.00;99.90
1417;DHT22;703;51.162;13.574;2023-08-17T12:30:33;32.20;99.90
1417;DHT22;703;51.162;13.574;2023-08-17T12:33:01;31.90;99.90
1417;DHT22;703;51.162;13.574;2023-08-17T12:35:26;32.20;99.90
1417;DHT22;703;51.162;13.574;2023-08-17T12:37:52;32.10;99.90
1417;DHT22;703;51.162;13.574;2023-08-17T12:40:18;31.70;99.90
1417;DHT22;703;51.162;13.574;2023-08-17T12:42:44;32.10;99.90
1417;DHT22;703;51.162;13.574;2023-08-17T12:45:09;32.80;99.90
1417;DHT22;703;51.162;13.574;2023-08-17T12:47:35;32.70;99.90
1417;DHT22;703;51.162;13.574;2023-08-17T12:50:00;32.50;99.90
1417;DHT22;703;51.162;13.574;2023-08-17T12:52:27;32.70;99.90
1417;DHT22;703;51.162;13.574;2023-08-17T12:54:53;32.50;99.90
1417;DHT22;703;51.162;13.574;2023-08-17T12:57:18;32.40;99.90
1417;DHT22;703;51.162;13.574;2023-08-17T12:59:43;32.40;99.90
1417;DHT22;703;51.162;13.574;2023-08-17T13:02:09;32.10;99.90
1417;DHT22;703;51.162;13.574;2023-08-17T13:04:34;32.20;99.90
1417;DHT22;703;51.162;13.574;2023-08-17T13:07:01;32.80;99.90
1417;DHT22;703;51.162;13.574;2023-08-17T13:09:26;32.90;99.90
1417;DHT22;703;51.162;13.574;2023-08-17T13:11:52;33.30;99.90
1417;DHT22;703;51.162;13.574;2023-08-17T13:14:17;33.50;99.90
1417;DHT22;703;51.162;13.574;2023-08-17T13:16:43;32.80;99.90
1417;DHT22;703;51.162;13.574;2023-08-17T13:19:08;32.60;99.90
1417;DHT22;703;51.162;13.574;2023-08-17T13:21:34;32.60;99.90
1417;DHT22;703;51.162;13.574;2023-08-17T13:23:59;32.00;99.90
1417;DHT22;703;51.162;13.574;2023-08-17T13:26:25;32.00;99.90
1417;DHT22;703;51.162;13.574;2023-08-17T13:28:50;32.70;99.90
1417;DHT22;703;51.162;13.574;2023-08-17T13:31:16;33.10;99.90
1417;DHT22;703;51.162;13.574;2023-08-17T13:33:41;32.50;99.90
1417;DHT22;703;51.162;13.574;2023-08-17T13:36:07;32.50;99.90
1417;DHT22;703;51.162;13.574;2023-08-17T13:38:32;31.90;99.90
1417;DHT22;703;51.162;13.574;2023-08-17T13:41:00;31.50;99.90
1417;DHT22;703;51.162;13.574;2023-08-17T13:43:25;31.00;99.90
1417;DHT22;703;51.162;13.574;2023-08-17T13:45:50;30.90;99.90
1417;DHT22;703;51.162;13.574;2023-08-17T13:48:16;31.10;99.90
1417;DHT22;703;51.162;13.574;2023-08-17T13:50:41;31.00;99.90
1417;DHT22;703;51.162;13.574;2023-08-17T13:53:07;31.40;99.90
1417;DHT22;703;51.162;13.574;2023-08-17T13:55:32;31.30;99.90
1417;DHT22;703;51.162;13.574;2023-08-17T13:57:58;30.90;99.90
1417;DHT22;703;51.162;13.574;2023-08-17T14:00:23;31.60;99.90
1417;DHT22;703;51.162;13.574;2023-08-17T14:02:49;30.90;99.90
1417;DHT22;703;51.162;13.574;2023-08-17T14:05:15;30.60;99.90
1417;DHT22;703;51.162;13.574;2023-08-17T14:07:40;30.60;99.90
1417;DHT22;703;51.162;13.574;2023-08-17T14:10:06;30.90;99.90
1417;DHT22;703;51.162;13.574;2023-08-17T14:12:31;30.80;99.90
1417;DHT22;703;51.162;13.574;2023-08-17T14:14:57;30.70;99.90
1417;DHT22;703;51.162;13.574;2023-08-17T14:17:22;30.60;99.90
1417;DHT22;703;51.162;13.574;2023-08-17T14:19:48;31.00;99.90
1417;DHT22;703;51.162;13.574;2023-08-17T14:22:13;30.30;99.90
1417;DHT22;703;51.162;13.574;2023-08-17T14:24:38;30.50;99.90
1417;DHT22;703;51.162;13.574;2023-08-17T14:27:04;30.70;99.90
1417;DHT22;703;51.162;13.574;2023-08-17T14:29:29;30.50;99.90
1417;DHT22;703;51.162;13.574;2023-08-17T14:31:55;30.40;99.90
1417;DHT22;703;51.162;13.574;2023-08-17T14:34:20;30.20;99.90
1417;DHT22;703;51.162;13.574;2023-08-17T14:36:46;30.10;99.90
1417;DHT22;703;51.162;13.574;2023-08-17T14:39:12;31.10;99.90
1417;DHT22;703;51.162;13.574;2023-08-17T14:41:37;29.90;99.90
1417;DHT22;703;51.162;13.574;2023-08-17T14:44:03;30.80;99.90
1417;DHT22;703;51.162;13.574;2023-08-17T14:46:29;30.10;99.90
1417;DHT22;703;51.162;13.574;2023-08-17T14:48:54;30.00;99.90
1417;DHT22;703;51.162;13.574;2023-08-17T14:51:19;30.00;99.90
1417;DHT22;703;51.162;13.574;2023-08-17T14:53:45;29.70;99.90
1417;DHT22;703;51.162;13.574;2023-08-17T14:56:10;29.70;99.90
1417;DHT22;703;51.162;13.574;2023-08-17T14:58:36;29.60;99.90
1417;DHT22;703;51.162;13.574;2023-08-17T15:01:01;29.70;99.90
1417;DHT22;703;51.162;13.574;2023-08-17T15:03:28;29.50;99.90
1417;DHT22;703;51.162;13.574;2023-08-17T15:05:53;29.40;99.90
1417;DHT22;703;51.162;13.574;2023-08-17T15:08:19;29.40;99.90
1417;DHT22;703;51.162;13.574;2023-08-17T15:10:45;29.60;99.90
1417;DHT22;703;51.162;13.574;2023-08-17T15:13:11;29.40;99.90
1417;DHT22;703;51.162;13.574;2023-08-17T15:15:36;29.60;99.90
1417;DHT22;703;51.162;13.574;2023-08-17T15:18:02;29.60;99.90
1417;DHT22;703;51.162;13.574;2023-08-17T15:20:28;29.60;99.90
1417;DHT22;703;51.162;13.574;2023-08-17T15:22:55;29.60;99.90
1417;DHT22;703;51.162;13.574;2023-08-17T15:25:21;29.60;99.90
1417;DHT22;703;51.162;13.574;2023-08-17T15:27:46;29.40;99.90
1417;DHT22;703;51.162;13.574;2023-08-17T15:30:11;30.20;99.90
1417;DHT22;703;51.162;13.574;2023-08-17T15:32:37;29.50;99.90
1417;DHT22;703;51.162;13.574;2023-08-17T15:35:02;29.50;99.90
1417;DHT22;703;51.162;13.574;2023-08-17T15:37:28;29.50;99.90
1417;DHT22;703;51.162;13.574;2023-08-17T15:39:53;29.50;99.90
1417;DHT22;703;51.162;13.574;2023-08-17T15:42:19;29.40;99.90
1417;DHT22;703;51.162;13.574;2023-08-17T15:44:44;29.60;99.90
1417;DHT22;703;51.162;13.574;2023-08-17T15:47:10;29.30;99.90
1417;DHT22;703;51.162;13.574;2023-08-17T15:49:35;29.20;99.90
1417;DHT22;703;51.162;13.574;2023-08-17T15:52:01;29.20;99.90
1417;DHT22;703;51.162;13.574;2023-08-17T15:54:26;29.20;99.90
1417;DHT22;703;51.162;13.574;2023-08-17T15:56:52;29.10;99.90
1417;DHT22;703;51.162;13.574;2023-08-17T15:59:17;29.10;99.90
1417;DHT22;703;51.162;13.574;2023-08-17T16:01:43;29.20;99.90
1417;DHT22;703;51.162;13.574;2023-08-17T16:04:08;29.10;99.90